Terminal Aerodrome Forecast
Issued by NWS Albany, NY

Home | Current Version | Previous Version | Text Only | Print | Product List | Glossary On
Versions: 1 2 3 4 5 6 7 8 9 10 11 12 13 14 15 16 17 18 19 20
000
FTUS41 KALY 211700
TAFALB
TAF
KALB 211723Z 2118/2218 36005KT 6SM -SHSN BR FEW015 OVC025
      TEMPO 2118/2120 4SM -SHSN BR BKN015 OVC025
     FM212200 VRB03KT P6SM BKN025 OVC040
     FM220400 00000KT 5SM -SHSN BR SCT008 OVC015
     FM221700 03004KT 6SM BR VCSH SCT010 OVC020=

USA.gov is the U.S. government's official web portal to all federal, state and local government web resources and services.